Time,TemperatureF,DewpointF,PressureIn,WindDirection,WindDirectionDegrees,WindSpeedMPH,WindSpeedGustMPH,Humidity,HourlyPrecipIn,Conditions,Clouds,dailyrainin,SoftwareType,DateUTC
2013-01-19 00:00:00,40.7,34.0,30.36,ENE,76,0.0,2.0,77,0.00,,,0.00,weatherlink.com 1.10,2013-01-19 06:00:00,
2013-01-19 00:15:00,40.4,34.0,30.36,ENE,73,1.0,4.0,78,0.00,,,0.00,weatherlink.com 1.10,2013-01-19 06:15:00,
2013-01-19 00:30:00,40.5,34.0,30.36,East,96,1.0,2.0,77,0.00,,,0.00,weatherlink.com 1.10,2013-01-19 06:30:00,
2013-01-19 00:45:00,40.1,33.0,30.36,East,91,2.0,4.0,77,0.00,,,0.00,weatherlink.com 1.10,2013-01-19 06:45:00,
2013-01-19 01:00:00,39.3,33.0,30.36,NE,34,0.0,3.0,78,0.00,,,0.00,weatherlink.com 1.10,2013-01-19 07:00:00,
2013-01-19 01:15:00,38.1,32.0,30.36,NE,34,0.0,0.0,79,0.00,,,0.00,weatherlink.com 1.10,2013-01-19 07:15:00,
2013-01-19 01:30:00,37.4,32.0,30.36,NE,34,0.0,0.0,81,0.00,,,0.00,weatherlink.com 1.10,2013-01-19 07:30:00,
2013-01-19 01:45:00,37.4,32.0,30.36,NNE,19,0.0,0.0,80,0.00,,,0.00,weatherlink.com 1.10,2013-01-19 07:45:00,
2013-01-19 02:00:00,37.8,32.0,30.36,NNE,18,0.0,0.0,78,0.00,,,0.00,weatherlink.com 1.10,2013-01-19 08:00:00,
2013-01-19 02:15:00,37.5,31.0,30.36,NE,39,0.0,0.0,78,0.00,,,0.00,weatherlink.com 1.10,2013-01-19 08:15:00,
2013-01-19 02:30:00,37.4,31.0,30.36,NE,39,0.0,0.0,78,0.00,,,0.00,weatherlink.com 1.10,2013-01-19 08:30:00,
2013-01-19 02:46:00,37.1,31.0,30.37,NE,39,0.0,0.0,78,0.00,,,0.00,weatherlink.com 1.10,2013-01-19 08:46:00,
2013-01-19 03:01:00,36.9,31.0,30.36,NE,39,0.0,0.0,80,0.00,,,0.00,weatherlink.com 1.10,2013-01-19 09:01:00,
2013-01-19 03:16:00,36.6,32.0,30.36,NE,38,0.0,0.0,82,0.00,,,0.00,weatherlink.com 1.10,2013-01-19 09:16:00,
2013-01-19 03:31:00,36.2,31.0,30.36,East,84,0.0,0.0,82,0.00,,,0.00,weatherlink.com 1.10,2013-01-19 09:31:00,
2013-01-19 03:46:00,36.3,32.0,30.35,East,84,0.0,1.0,84,0.00,,,0.00,weatherlink.com 1.10,2013-01-19 09:46:00,
2013-01-19 04:01:00,35.7,31.0,30.36,East,83,0.0,0.0,84,0.00,,,0.00,weatherlink.com 1.10,2013-01-19 10:01:00,
2013-01-19 04:16:00,34.8,31.0,30.36,East,83,0.0,0.0,87,0.00,,,0.00,weatherlink.com 1.10,2013-01-19 10:16:00,
2013-01-19 04:31:00,34.1,31.0,30.36,East,84,0.0,0.0,87,0.00,,,0.00,weatherlink.com 1.10,2013-01-19 10:31:00,
2013-01-19 04:46:00,33.5,31.0,30.36,East,84,0.0,0.0,89,0.00,,,0.00,weatherlink.com 1.10,2013-01-19 10:46:00,
2013-01-19 07:01:00,31.6,30.0,30.39,WNW,287,0.0,0.0,93,0.00,,,0.00,weatherlink.com 1.10,2013-01-19 13:01:00,
2013-01-19 07:16:00,33.8,32.0,30.39,WSW,248,0.0,0.0,91,0.00,,,0.00,weatherlink.com 1.10,2013-01-19 13:16:00,
2013-01-19 07:31:00,37.5,33.0,30.39,WSW,246,0.0,0.0,85,0.00,,,0.00,weatherlink.com 1.10,2013-01-19 13:31:00,
2013-01-19 07:46:00,39.9,34.0,30.39,WSW,246,0.0,1.0,78,0.00,,,0.00,weatherlink.com 1.10,2013-01-19 13:46:00,
2013-01-19 08:01:00,39.1,34.0,30.39,SW,232,0.0,0.0,81,0.00,,,0.00,weatherlink.com 1.10,2013-01-19 14:01:00,
2013-01-19 08:16:00,39.7,33.0,30.39,ENE,65,0.0,1.0,78,0.00,,,0.00,weatherlink.com 1.10,2013-01-19 14:16:00,
2013-01-19 08:31:00,40.6,35.0,30.40,East,79,0.0,1.0,79,0.00,,,0.00,weatherlink.com 1.10,2013-01-19 14:31:00,
2013-01-19 09:01:00,45.4,36.0,30.41,ENE,77,3.0,3.0,70,0.00,,,0.00,weatherlink.com 1.10,2013-01-19 15:01:00,
2013-01-19 09:16:00,46.9,36.0,30.41,East,94,4.0,5.0,65,0.00,,,0.00,weatherlink.com 1.10,2013-01-19 15:16:00,
2013-01-19 09:31:00,47.2,35.0,30.41,East,86,4.0,6.0,62,0.00,,,0.00,weatherlink.com 1.10,2013-01-19 15:31:00,
2013-01-19 09:46:00,48.5,35.0,30.40,ENE,74,4.0,7.0,60,0.00,,,0.00,weatherlink.com 1.10,2013-01-19 15:46:00,
2013-01-19 10:02:00,51.0,36.0,30.40,East,84,3.0,5.0,58,0.00,,,0.00,weatherlink.com 1.10,2013-01-19 16:02:00,
2013-01-19 10:17:00,52.6,36.0,30.39,East,83,2.0,6.0,53,0.00,,,0.00,weatherlink.com 1.10,2013-01-19 16:17:00,
2013-01-19 10:32:00,54.0,36.0,30.38,ENE,75,5.0,6.0,51,0.00,,,0.00,weatherlink.com 1.10,2013-01-19 16:32:00,
2013-01-19 10:47:00,56.0,37.0,30.37,East,92,3.0,7.0,49,0.00,,,0.00,weatherlink.com 1.10,2013-01-19 16:47:00,
2013-01-19 11:02:00,57.3,38.0,30.36,SE,136,0.0,4.0,49,0.00,,,0.00,weatherlink.com 1.10,2013-01-19 17:02:00,
2013-01-19 11:32:00,59.0,38.0,30.34,NE,50,0.0,4.0,46,0.00,,,0.00,weatherlink.com 1.10,2013-01-19 17:32:00,
2013-01-19 11:47:00,58.2,39.0,30.32,WSW,240,1.0,3.0,50,0.00,,,0.00,weatherlink.com 1.10,2013-01-19 17:47:00,
2013-01-19 12:17:00,59.7,39.0,30.30,SSE,157,0.0,3.0,47,0.00,,,0.00,weatherlink.com 1.10,2013-01-19 18:17:00,
2013-01-19 12:47:00,59.2,40.0,30.29,SW,229,1.0,2.0,50,0.00,,,0.00,weatherlink.com 1.10,2013-01-19 18:47:00,
2013-01-19 13:02:00,59.7,41.0,30.28,SE,134,0.0,2.0,50,0.00,,,0.00,weatherlink.com 1.10,2013-01-19 19:02:00,
2013-01-19 13:17:00,60.0,41.0,30.27,West,260,1.0,5.0,50,0.00,,,0.00,weatherlink.com 1.10,2013-01-19 19:17:00,
2013-01-19 13:32:00,60.7,42.0,30.27,WNW,293,1.0,3.0,50,0.00,,,0.00,weatherlink.com 1.10,2013-01-19 19:32:00,
2013-01-19 13:47:00,60.1,42.0,30.27,SW,236,1.0,5.0,51,0.00,,,0.00,weatherlink.com 1.10,2013-01-19 19:47:00,
2013-01-19 14:17:00,59.5,42.0,30.27,WSW,253,1.0,2.0,52,0.00,,,0.00,weatherlink.com 1.10,2013-01-19 20:17:00,
2013-01-19 14:32:00,59.0,42.0,30.26,WSW,243,0.0,2.0,53,0.00,,,0.00,weatherlink.com 1.10,2013-01-19 20:32:00,
2013-01-19 14:48:00,59.5,42.0,30.25,ENE,58,1.0,3.0,52,0.00,,,0.00,weatherlink.com 1.10,2013-01-19 20:48:00,
2013-01-19 15:02:00,59.1,43.0,30.24,WNW,283,0.0,2.0,56,0.00,,,0.00,weatherlink.com 1.10,2013-01-19 21:02:00,
2013-01-19 15:32:00,58.7,42.0,30.24,WSW,238,0.0,1.0,55,0.00,,,0.00,weatherlink.com 1.10,2013-01-19 21:32:00,
2013-01-19 16:02:00,59.2,44.0,30.24,East,83,0.0,0.0,58,0.00,,,0.00,weatherlink.com 1.10,2013-01-19 22:02:00,
2013-01-19 16:18:00,57.9,44.0,30.24,East,83,0.0,0.0,61,0.00,,,0.00,weatherlink.com 1.10,2013-01-19 22:18:00,
2013-01-19 16:32:00,56.1,44.0,30.24,East,83,0.0,0.0,65,0.00,,,0.00,weatherlink.com 1.10,2013-01-19 22:32:00,
2013-01-19 16:47:00,55.0,45.0,30.24,East,83,0.0,0.0,69,0.00,,,0.00,weatherlink.com 1.10,2013-01-19 22:47:00,
2013-01-19 17:02:00,53.5,45.0,30.24,East,84,0.0,0.0,73,0.00,,,0.00,weatherlink.com 1.10,2013-01-19 23:02:00,
2013-01-19 17:17:00,51.9,44.0,30.24,East,83,0.0,0.0,74,0.00,,,0.00,weatherlink.com 1.10,2013-01-19 23:17:00,
2013-01-19 17:33:00,51.2,45.0,30.24,East,83,0.0,0.0,78,0.00,,,0.00,weatherlink.com 1.10,2013-01-19 23:33:00,
2013-01-19 17:48:00,50.6,45.0,30.25,East,83,0.0,0.0,80,0.00,,,0.00,weatherlink.com 1.10,2013-01-19 23:48:00,
2013-01-19 18:18:00,49.9,45.0,30.25,East,84,0.0,0.0,84,0.00,,,0.00,weatherlink.com 1.10,2013-01-20 00:18:00,
2013-01-19 18:33:00,49.1,44.0,30.25,East,83,0.0,0.0,81,0.00,,,0.00,weatherlink.com 1.10,2013-01-20 00:33:00,
2013-01-19 18:48:00,48.8,43.0,30.25,East,83,0.0,0.0,81,0.00,,,0.00,weatherlink.com 1.10,2013-01-20 00:48:00,
2013-01-19 19:03:00,48.6,42.0,30.25,East,83,0.0,0.0,79,0.00,,,0.00,weatherlink.com 1.10,2013-01-20 01:03:00,
2013-01-19 19:18:00,48.2,44.0,30.25,East,83,0.0,0.0,84,0.00,,,0.00,weatherlink.com 1.10,2013-01-20 01:18:00,
2013-01-19 19:33:00,48.1,42.0,30.25,East,83,0.0,0.0,79,0.00,,,0.00,weatherlink.com 1.10,2013-01-20 01:33:00,
2013-01-19 19:48:00,48.1,42.0,30.25,East,83,0.0,0.0,79,0.00,,,0.00,weatherlink.com 1.10,2013-01-20 01:48:00,
2013-01-19 20:18:00,48.1,42.0,30.26,East,83,0.0,0.0,78,0.00,,,0.00,weatherlink.com 1.10,2013-01-20 02:18:00,
2013-01-19 20:33:00,48.9,42.0,30.26,East,83,0.0,0.0,78,0.00,,,0.00,weatherlink.com 1.10,2013-01-20 02:33:00,
2013-01-19 20:48:00,49.5,43.0,30.26,East,83,0.0,0.0,77,0.00,,,0.00,weatherlink.com 1.10,2013-01-20 02:48:00,
2013-01-19 21:18:00,47.0,43.0,30.25,East,83,0.0,0.0,86,0.00,,,0.00,weatherlink.com 1.10,2013-01-20 03:18:00,
2013-01-19 21:33:00,45.7,42.0,30.24,East,83,0.0,0.0,86,0.00,,,0.00,weatherlink.com 1.10,2013-01-20 03:33:00,
2013-01-19 21:48:00,45.4,42.0,30.23,East,83,0.0,0.0,87,0.00,,,0.00,weatherlink.com 1.10,2013-01-20 03:48:00,
2013-01-19 22:03:00,44.8,41.0,30.24,East,83,0.0,0.0,87,0.00,,,0.00,weatherlink.com 1.10,2013-01-20 04:03:00,
2013-01-19 22:18:00,44.4,42.0,30.23,East,83,0.0,0.0,90,0.00,,,0.00,weatherlink.com 1.10,2013-01-20 04:18:00,
2013-01-19 22:32:00,44.4,42.0,30.23,East,83,0.0,0.0,91,0.00,,,0.00,weatherlink.com 1.10,2013-01-20 04:32:00,
2013-01-19 22:47:00,44.3,42.0,30.23,East,83,0.0,0.0,90,0.00,,,0.00,weatherlink.com 1.10,2013-01-20 04:47:00,
2013-01-19 23:17:00,43.6,42.0,30.23,East,83,0.0,0.0,92,0.00,,,0.00,weatherlink.com 1.10,2013-01-20 05:17:00,
2013-01-19 23:32:00,44.2,42.0,30.23,East,83,0.0,1.0,91,0.00,,,0.00,weatherlink.com 1.10,2013-01-20 05:32:00,
2013-01-19 23:47:00,44.5,42.0,30.23,East,83,0.0,0.0,90,0.00,,,0.00,weatherlink.com 1.10,2013-01-20 05:47:00,